Time;durP1;ratioP1;P1;durP2;ratioP2;P2;SDS_P1;SDS_P2;PMS_P1;PMS_P2;Temp;Humidity;BMP_temperature;BMP_pressure;BME280_temperature;BME280_humidity;BME280_pressure;Samples;Min_cycle;Max_cycle;Signal;HPM_P1;HPM_P2
2022/04/22 00:00:30;;;;;;;18.57;11.33;;;9.20;79.30;;;;;;5056666;28;20471;-78
2022/04/22 00:02:59;;;;;;;20.97;10.17;;;7.50;77.40;;;;;;5068562;28;20484;-75
2022/04/22 00:05:27;;;;;;;21.73;12.33;;;9.10;79.30;;;;;;5069086;28;20975;-75
2022/04/22 00:07:53;;;;;;;16.93;10.20;;;9.10;79.90;;;;;;5074244;28;20481;-74
2022/04/22 00:10:20;;;;;;;35.57;14.83;;;9.00;79.90;;;;;;5073952;27;20484;-74
2022/04/22 00:12:47;;;;;;;20.23;11.13;;;9.10;81.00;;;;;;5066016;28;20479;-74
2022/04/22 00:15:16;;;;;;;18.00;10.87;;;9.10;81.20;;;;;;5073259;28;20488;-75
2022/04/22 00:17:44;;;;;;;17.60;10.70;;;9.00;80.30;;;;;;5077972;28;20513;-76
2022/04/22 00:20:12;;;;;;;19.43;10.13;;;9.00;80.80;;;;;;5073287;28;20489;-75
2022/04/22 00:22:40;;;;;;;11.97;9.30;;;9.00;81.10;;;;;;5069845;28;20569;-80
2022/04/22 00:25:10;;;;;;;15.10;10.87;;;9.00;80.40;;;;;;5066808;28;20473;-75
2022/04/22 00:27:38;;;;;;;12.10;9.50;;;10.40;81.30;;;;;;5071044;28;20493;-75
2022/04/22 00:30:08;;;;;;;18.27;10.33;;;9.00;81.50;;;;;;5068493;28;20488;-76
2022/04/22 00:32:37;;;;;;;16.33;11.00;;;8.90;81.40;;;;;;5086112;28;20862;-73
2022/04/22 00:35:05;;;;;;;12.50;10.03;;;8.80;81.50;;;;;;5074003;28;21217;-74
2022/04/22 00:37:33;;;;;;;25.30;14.67;;;8.80;81.60;;;;;;5069361;28;20475;-76
2022/04/22 00:40:01;;;;;;;13.23;9.40;;;8.80;81.80;;;;;;5062399;28;20488;-74
2022/04/22 00:42:28;;;;;;;19.23;12.70;;;8.70;81.80;;;;;;5080893;28;20492;-74
2022/04/22 00:44:57;;;;;;;20.80;11.00;;;8.70;82.50;;;;;;5071036;28;20501;-74
2022/04/22 00:47:25;;;;;;;9.80;8.80;;;8.70;82.40;;;;;;5068097;28;20581;-74
2022/04/22 00:49:53;;;;;;;12.83;9.50;;;8.60;83.40;;;;;;5072292;28;20513;-73
2022/04/22 00:52:22;;;;;;;13.57;10.07;;;8.60;84.50;;;;;;5069673;28;20473;-72
2022/04/22 00:54:49;;;;;;;16.67;10.60;;;8.60;85.40;;;;;;5063010;28;20474;-74
2022/04/22 00:57:19;;;;;;;15.67;9.77;;;8.70;86.00;;;;;;5085102;28;20560;-73
2022/04/22 00:59:46;;;;;;;14.87;9.37;;;8.70;86.10;;;;;;5076492;28;20542;-73
2022/04/22 01:02:13;;;;;;;10.70;8.73;;;8.80;86.30;;;;;;5065744;28;20480;-74
2022/04/22 01:10:10;;;;;;;36.37;11.97;;;;;;;;;;5058047;28;20560;-77
2022/04/22 01:12:39;;;;;;;16.90;10.60;;;8.90;85.50;;;;;;5072438;28;20497;-75
2022/04/22 01:15:06;;;;;;;17.97;11.17;;;8.90;86.20;;;;;;5069400;28;20522;-70
2022/04/22 01:17:33;;;;;;;20.00;12.13;;;9.00;87.20;;;;;;5074083;28;20514;-75
2022/04/22 01:20:00;;;;;;;19.63;11.00;;;8.90;86.40;;;;;;5069562;28;21005;-73
2022/04/22 01:22:28;;;;;;;102.03;19.63;;;9.00;86.90;;;;;;5074251;28;20478;-74
2022/04/22 01:24:58;;;;;;;18.33;10.90;;;9.00;87.40;;;;;;5068425;28;20490;-72
2022/04/22 01:27:29;;;;;;;66.60;18.63;;;;;;;;;;5072915;28;20489;-77
2022/04/22 01:29:56;;;;;;;41.03;13.43;;;;;;;;;;5074184;28;20527;-73
2022/04/22 01:32:23;;;;;;;73.80;18.30;;;;;;;;;;5068288;28;20473;-75
2022/04/22 01:34:50;;;;;;;21.27;12.30;;;9.00;87.10;;;;;;5070710;28;20482;-73
2022/04/22 01:37:17;;;;;;;14.10;10.87;;;9.00;87.60;;;;;;5066722;28;20477;-73
2022/04/22 01:39:45;;;;;;;53.30;13.73;;;9.00;86.90;;;;;;5071309;28;21031;-74
2022/04/22 01:42:13;;;;;;;23.50;11.07;;;;;;;;;;5070455;28;20479;-73
2022/04/22 01:44:39;;;;;;;26.60;11.63;;;9.00;86.70;;;;;;5082119;28;20478;-73
2022/04/22 01:47:07;;;;;;;45.30;13.50;;;8.90;86.80;;;;;;5072539;28;20474;-74
2022/04/22 01:49:34;;;;;;;27.63;14.67;;;8.90;87.40;;;;;;5057052;28;21061;-72
2022/04/22 01:52:02;;;;;;;20.70;11.67;;;8.80;87.10;;;;;;5077167;28;20504;-75
2022/04/22 01:54:29;;;;;;;102.27;22.07;;;;;;;;;;5069138;28;20480;-76
2022/04/22 01:56:57;;;;;;;68.93;17.20;;;8.60;86.70;;;;;;5078690;28;20481;-74
2022/04/22 01:59:26;;;;;;;45.07;18.20;;;8.70;87.50;;;;;;5076084;28;20490;-76
2022/04/22 02:01:53;;;;;;;25.47;11.83;;;8.70;87.10;;;;;;5070823;28;20488;-72
2022/04/22 02:04:20;;;;;;;106.13;21.03;;;8.80;87.80;;;;;;5066745;28;20487;-74
2022/04/22 02:06:47;;;;;;;43.43;14.40;;;8.60;87.80;;;;;;5077295;28;20476;-74
2022/04/22 02:09:14;;;;;;;37.53;14.37;;;8.70;87.50;;;;;;5065883;28;20858;-76
2022/04/22 02:11:41;;;;;;;31.50;17.67;;;8.70;88.00;;;;;;5069235;28;20487;-74
2022/04/22 02:14:09;;;;;;;24.83;14.30;;;8.80;88.10;;;;;;5079391;28;20474;-75
2022/04/22 02:16:36;;;;;;;37.77;14.57;;;8.70;88.20;;;;;;5056221;28;20472;-73
2022/04/22 02:19:04;;;;;;;31.03;13.13;;;8.70;88.70;;;;;;5073477;28;20478;-75
2022/04/22 02:21:31;;;;;;;68.13;18.90;;;8.70;88.20;;;;;;5066647;28;20491;-77
2022/04/22 02:23:58;;;;;;;46.70;16.23;;;8.70;88.40;;;;;;5070344;28;20478;-77
2022/04/22 02:26:26;;;;;;;95.23;23.20;;;;;;;;;;5065904;28;20480;-76
2022/04/22 02:28:52;;;;;;;24.33;15.40;;;8.70;88.20;;;;;;5073419;28;20961;-77
2022/04/22 02:31:21;;;;;;;24.40;16.07;;;8.70;88.40;;;;;;5078076;28;20481;-72
2022/04/22 02:33:48;;;;;;;34.87;16.30;;;;;;;;;;5073739;28;20926;-73
2022/04/22 02:36:15;;;;;;;32.13;15.43;;;8.70;88.30;;;;;;5065696;28;21360;-74
2022/04/22 02:38:42;;;;;;;26.83;15.37;;;8.70;89.00;;;;;;5066902;28;20558;-78
2022/04/22 02:46:39;;;;;;;23.63;15.07;;;8.60;88.50;;;;;;5055853;28;21029;-75
2022/04/22 02:49:06;;;;;;;27.27;15.43;;;8.60;88.20;;;;;;5065332;28;20851;-76
2022/04/22 02:51:32;;;;;;;26.77;17.37;;;8.70;88.80;;;;;;5065987;28;20486;-74
2022/04/22 02:53:59;;;;;;;32.83;17.83;;;8.70;89.20;;;;;;5068438;28;20496;-72
2022/04/22 02:56:27;;;;;;;82.40;22.40;;;8.60;88.40;;;;;;5071051;28;20474;-75
2022/04/22 02:58:56;;;;;;;31.07;16.50;;;8.60;88.80;;;;;;5074675;28;20838;-74
2022/04/22 03:01:23;;;;;;;72.67;21.73;;;;;;;;;;5065461;28;20487;-74
2022/04/22 03:03:57;;;;;;;57.13;19.77;;;8.60;88.60;;;;;;5076826;28;20489;-74
2022/04/22 03:06:26;;;;;;;107.40;25.70;;;;;;;;;;5060591;28;20471;-76
2022/04/22 03:08:53;;;;;;;24.73;14.77;;;8.60;89.00;;;;;;5071488;28;20485;-74
2022/04/22 03:11:21;;;;;;;30.90;19.37;;;8.60;89.90;;;;;;5061510;28;20490;-72
2022/04/22 03:13:49;;;;;;;28.53;17.70;;;8.60;89.70;;;;;;5066747;28;20563;-71
2022/04/22 03:16:17;;;;;;;35.00;18.87;;;;;;;;;;5077680;28;20912;-73
2022/04/22 03:18:44;;;;;;;38.77;17.50;;;;;;;;;;5068436;28;20532;-74
2022/04/22 03:21:13;;;;;;;26.83;16.90;;;8.60;89.40;;;;;;5074308;28;20813;-77
2022/04/22 03:23:39;;;;;;;35.23;17.10;;;8.50;89.20;;;;;;5071167;28;20860;-76
2022/04/22 03:26:07;;;;;;;25.70;16.07;;;8.50;89.20;;;;;;5063402;28;20828;-75
2022/04/22 03:28:34;;;;;;;30.40;18.43;;;8.50;89.80;;;;;;5073925;28;20555;-73
2022/04/22 03:31:01;;;;;;;26.67;16.93;;;8.40;89.90;;;;;;5076056;28;21005;-72
2022/04/22 03:33:29;;;;;;;43.77;21.03;;;8.40;89.90;;;;;;5072736;28;20844;-72
2022/04/22 03:35:56;;;;;;;49.27;18.43;;;;;;;;;;5069613;28;20845;-74
2022/04/22 03:38:24;;;;;;;51.00;22.23;;;;;;;;;;5069759;28;20468;-75
2022/04/22 03:40:53;;;;;;;50.70;18.93;;;8.40;90.10;;;;;;5075632;28;20488;-74
2022/04/22 03:43:23;;;;;;;68.63;22.80;;;8.40;90.30;;;;;;5067391;28;20502;-80
2022/04/22 03:45:50;;;;;;;44.50;19.60;;;8.30;90.40;;;;;;5087787;28;20472;-72
2022/04/22 03:48:17;;;;;;;81.07;23.07;;;8.40;90.30;;;;;;5073093;28;20485;-74
2022/04/22 03:50:46;;;;;;;40.63;18.70;;;8.40;90.30;;;;;;5067333;28;21126;-75
2022/04/22 03:53:13;;;;;;;40.63;19.47;;;8.40;90.30;;;;;;5074734;28;20490;-76
2022/04/22 03:55:42;;;;;;;43.53;20.07;;;8.40;90.20;;;;;;5072579;28;20516;-76
2022/04/22 03:58:11;;;;;;;44.00;18.20;;;8.40;90.30;;;;;;5063766;28;21212;-76
2022/04/22 04:00:40;;;;;;;67.93;21.63;;;;;;;;;;5072358;28;20478;-73
2022/04/22 04:03:07;;;;;;;48.67;20.23;;;8.40;90.20;;;;;;5079536;28;21005;-75
2022/04/22 04:05:34;;;;;;;93.57;24.40;;;;;;;;;;5080073;28;20481;-73
2022/04/22 04:08:02;;;;;;;42.23;18.37;;;8.40;90.10;;;;;;5070756;28;20831;-76
2022/04/22 04:15:59;;;;;;;39.30;19.60;;;8.40;90.30;;;;;;5054625;28;20489;-77
2022/04/22 04:18:25;;;;;;;97.70;23.23;;;8.40;90.30;;;;;;5079808;28;20494;-75
2022/04/22 04:23:37;;;;;;;61.67;22.23;;;8.10;90.40;;;;;;5068300;28;20654;-73
2022/04/22 04:26:04;;;;;;;40.87;21.80;;;8.20;90.70;;;;;;5072779;28;20947;-76
2022/04/22 04:28:33;;;;;;;59.67;24.30;;;8.20;90.90;;;;;;5073062;28;20473;-76
2022/04/22 04:31:01;;;;;;;31.53;18.60;;;8.20;90.80;;;;;;5083860;28;20521;-73
2022/04/22 04:33:29;;;;;;;86.37;26.03;;;8.20;90.80;;;;;;5088165;28;21014;-76
2022/04/22 04:35:56;;;;;;;55.17;22.83;;;8.20;90.70;;;;;;5079390;28;20946;-78
2022/04/22 04:38:23;;;;;;;84.47;25.90;;;7.20;90.30;;;;;;5072126;28;20482;-76
2022/04/22 04:40:51;;;;;;;38.63;18.90;;;8.20;90.80;;;;;;5069577;28;20975;-75
2022/04/22 04:43:18;;;;;;;51.23;23.17;;;;;;;;;;5076591;28;20478;-79
2022/04/22 04:45:49;;;;;;;50.40;23.97;;;8.20;90.90;;;;;;5075693;28;20477;-76
2022/04/22 04:48:16;;;;;;;57.47;21.83;;;8.20;91.10;;;;;;5078039;28;20473;-72
2022/04/22 04:50:44;;;;;;;49.57;21.50;;;8.20;91.20;;;;;;5072683;28;20536;-79
2022/04/22 04:53:11;;;;;;;47.93;24.20;;;8.30;91.10;;;;;;5073035;28;20478;-76
2022/04/22 04:55:38;;;;;;;56.43;24.10;;;8.30;91.30;;;;;;5078108;28;20568;-75
2022/04/22 04:58:05;;;;;;;47.10;22.83;;;8.30;91.30;;;;;;5080074;28;20903;-77
2022/04/22 05:00:32;;;;;;;77.37;26.20;;;;;;;;;;5078177;28;20473;-76
2022/04/22 05:03:02;;;;;;;42.27;22.03;;;8.30;91.10;;;;;;5071396;28;20480;-72
2022/04/22 05:05:29;;;;;;;92.13;31.40;;;8.40;91.30;;;;;;5067175;28;20505;-74
2022/04/22 05:07:57;;;;;;;43.03;24.60;;;8.40;91.30;;;;;;5067154;28;20512;-77
2022/04/22 05:10:25;;;;;;;150.50;28.90;;;8.40;91.10;;;;;;5070379;28;20476;-73
2022/04/22 05:12:53;;;;;;;60.00;24.00;;;8.40;91.40;;;;;;5076186;28;20474;-77
2022/04/22 05:15:22;;;;;;;55.17;25.30;;;8.50;91.50;;;;;;5072333;28;20474;-75
2022/04/22 05:17:50;;;;;;;53.87;23.67;;;8.50;91.40;;;;;;5061730;28;20503;-74
2022/04/22 05:20:25;;;;;;;69.10;27.27;;;8.60;91.30;;;;;;5068048;28;20841;-79
2022/04/22 05:22:51;;;;;;;52.90;24.77;;;8.70;91.30;;;;;;5062053;28;20537;-75
2022/04/22 05:25:20;;;;;;;59.20;27.10;;;8.70;91.40;;;;;;5070249;28;20470;-77
2022/04/22 05:27:47;;;;;;;66.17;25.33;;;;;;;;;;5067694;28;20481;-80
2022/04/22 05:32:59;;;;;;;49.40;27.33;;;8.90;91.40;;;;;;5064025;28;20476;-73
2022/04/22 05:35:28;;;;;;;127.03;33.33;;;9.00;91.30;;;;;;5063913;28;20485;-75
2022/04/22 05:37:56;;;;;;;52.70;26.33;;;9.10;91.40;;;;;;5070733;28;21251;-75
2022/04/22 05:40:24;;;;;;;60.77;31.90;;;9.10;91.60;;;;;;5067469;28;20490;-75
2022/04/22 05:42:53;;;;;;;48.53;26.07;;;9.20;91.50;;;;;;5073320;28;20485;-78
2022/04/22 05:45:21;;;;;;;71.73;29.80;;;;;;;;;;5078804;28;20577;-75
2022/04/22 05:47:48;;;;;;;46.57;25.03;;;9.40;91.20;;;;;;5071882;28;20488;-76
2022/04/22 05:50:18;;;;;;;49.73;27.27;;;9.50;91.40;;;;;;5071808;28;20484;-78
2022/04/22 05:52:46;;;;;;;47.57;25.50;;;9.60;91.40;;;;;;5070330;28;20479;-73
2022/04/22 05:55:16;;;;;;;40.83;22.27;;;9.60;91.20;;;;;;5075899;28;20487;-76
2022/04/22 05:57:45;;;;;;;64.90;24.63;;;9.70;91.00;;;;;;5072770;28;20485;-73
2022/04/22 06:00:13;;;;;;;60.80;26.40;;;;;;;;;;5069784;28;20490;-76
2022/04/22 06:02:40;;;;;;;49.90;24.27;;;9.90;91.20;;;;;;5072300;28;20859;-79
2022/04/22 06:05:08;;;;;;;54.00;26.90;;;10.00;90.60;;;;;;5070342;28;20499;-76
2022/04/22 06:07:42;;;;;;;55.27;27.57;;;10.40;90.40;;;;;;5066851;28;20485;-75
2022/04/22 06:12:58;;;;;;;81.10;24.10;;;;;;;;;;5073253;28;20547;-77
2022/04/22 06:15:25;;;;;;;64.90;31.17;;;10.70;89.20;;;;;;5073625;28;20492;-75
2022/04/22 06:17:52;;;;;;;60.13;28.03;;;10.70;89.90;;;;;;5069447;28;20829;-73
2022/04/22 06:20:19;;;;;;;57.87;28.60;;;10.80;89.90;;;;;;5074508;28;20567;-73
2022/04/22 06:22:46;;;;;;;47.87;26.37;;;11.00;89.70;;;;;;5067293;28;20474;-74
2022/04/22 06:25:14;;;;;;;35.87;20.80;;;11.10;89.80;;;;;;5070236;28;20919;-76
2022/04/22 06:27:42;;;;;;;43.63;22.80;;;11.30;89.00;;;;;;5071270;28;20972;-76
2022/04/22 06:30:11;;;;;;;43.00;24.23;;;11.50;88.90;;;;;;5070870;28;20496;-76
2022/04/22 06:32:40;;;;;;;42.37;25.33;;;11.90;90.00;;;;;;5068280;28;20482;-74
2022/04/22 06:35:08;;;;;;;39.50;21.90;;;12.10;87.40;;;;;;5071512;28;20480;-76
2022/04/22 06:37:37;;;;;;;37.27;23.10;;;12.40;87.70;;;;;;5075811;28;20479;-78
2022/04/22 06:45:48;;;;;;;37.90;23.30;;;13.00;84.20;;;;;;5068740;28;20512;-75
2022/04/22 06:48:19;;;;;;;35.10;21.77;;;13.10;84.20;;;;;;5074370;28;20897;-79
2022/04/22 06:50:47;;;;;;;35.80;21.80;;;13.10;84.10;;;;;;5075086;28;20487;-79
2022/04/22 06:53:16;;;;;;;40.30;22.97;;;13.20;85.00;;;;;;5060998;28;20595;-79
2022/04/22 06:55:43;;;;;;;37.87;21.50;;;13.50;84.20;;;;;;5067752;28;20488;-79
2022/04/22 06:58:15;;;;;;;37.80;21.37;;;13.70;83.90;;;;;;5071062;28;20494;-76
2022/04/22 07:00:43;;;;;;;31.70;19.97;;;13.60;82.10;;;;;;5075563;28;20483;-78
2022/04/22 07:03:11;;;;;;;36.83;21.40;;;13.50;82.60;;;;;;5066773;28;20860;-78
2022/04/22 07:05:39;;;;;;;23.03;16.20;;;13.30;83.00;;;;;;5065843;28;20486;-75
2022/04/22 07:08:13;;;;;;;37.03;23.07;;;13.30;82.40;;;;;;5071131;28;20486;-76
2022/04/22 07:10:40;;;;;;;39.60;23.87;;;13.10;82.80;;;;;;5070817;28;21665;-77
2022/04/22 07:13:08;;;;;;;34.37;21.40;;;13.00;83.00;;;;;;5065588;28;20486;-78
2022/04/22 07:15:38;;;;;;;37.30;23.67;;;12.90;82.40;;;;;;5057069;28;20484;-76
2022/04/22 07:18:06;;;;;;;34.03;21.30;;;12.70;83.00;;;;;;5065317;28;21316;-79
2022/04/22 07:20:33;;;;;;;35.13;21.03;;;12.60;83.40;;;;;;5064941;28;21355;-78
2022/04/22 07:23:00;;;;;;;37.30;22.20;;;12.60;83.80;;;;;;5070170;28;20489;-77
2022/04/22 07:25:28;;;;;;;32.30;20.10;;;12.80;84.30;;;;;;5069727;28;20504;-79
2022/04/22 07:27:56;;;;;;;33.77;22.50;;;13.00;83.50;;;;;;5056634;28;20604;-76
2022/04/22 07:30:24;;;;;;;37.87;24.53;;;13.40;85.10;;;;;;5069472;28;20503;-77
2022/04/22 07:32:52;;;;;;;34.67;23.40;;;13.80;84.80;;;;;;5064707;28;20479;-79
2022/04/22 07:35:21;;;;;;;35.50;23.37;;;14.10;83.80;;;;;;5073627;28;21469;-77
2022/04/22 07:37:51;;;;;;;36.43;22.60;;;14.30;82.80;;;;;;5063240;28;21211;-73
2022/04/22 07:40:20;;;;;;;30.57;19.00;;;14.50;82.00;;;;;;5063490;28;20496;-73
2022/04/22 07:48:20;;;;;;;37.00;21.97;;;14.70;81.10;;;;;;5069849;28;20471;-77
2022/04/22 07:50:48;;;;;;;34.10;21.67;;;14.60;79.50;;;;;;5067624;28;20500;-80
2022/04/22 07:53:15;;;;;;;33.40;23.30;;;14.60;80.30;;;;;;5079529;28;20822;-74
2022/04/22 07:55:42;;;;;;;36.43;24.57;;;14.70;81.20;;;;;;5068216;28;21071;-77
2022/04/22 07:58:10;;;;;;;33.37;21.43;;;14.90;81.90;;;;;;5065842;28;20484;-76
2022/04/22 08:00:38;;;;;;;28.00;20.70;;;15.00;80.70;;;;;;5073763;28;20821;-78
2022/04/22 08:03:05;;;;;;;31.10;21.00;;;15.20;80.70;;;;;;5064743;28;20485;-76
2022/04/22 08:05:33;;;;;;;37.03;25.30;;;15.30;79.70;;;;;;5065737;28;20492;-73
2022/04/22 08:07:59;;;;;;;21.57;13.27;;;15.50;79.30;;;;;;5072006;28;20872;-77
2022/04/22 08:10:26;;;;;;;41.57;23.80;;;15.60;78.60;;;;;;5069952;28;20490;-76
2022/04/22 08:12:53;;;;;;;36.20;22.70;;;15.80;80.20;;;;;;5067004;28;21072;-75
2022/04/22 08:15:21;;;;;;;38.23;24.37;;;15.90;79.20;;;;;;5061145;28;20691;-76
2022/04/22 08:17:49;;;;;;;32.90;22.80;;;15.90;78.10;;;;;;5060562;28;20510;-78
2022/04/22 08:20:16;;;;;;;27.87;18.40;;;16.00;79.20;;;;;;5073203;28;20818;-77
2022/04/22 08:22:45;;;;;;;37.77;22.10;;;16.00;77.60;;;;;;5064526;28;20980;-78
2022/04/22 08:25:12;;;;;;;29.63;20.43;;;16.00;77.00;;;;;;5063240;28;20848;-76
2022/04/22 08:27:40;;;;;;;36.60;24.93;;;15.90;76.80;;;;;;5073276;28;20861;-75
2022/04/22 08:30:08;;;;;;;35.33;22.83;;;16.00;78.00;;;;;;5072747;28;20481;-75
2022/04/22 08:32:35;;;;;;;31.43;22.90;;;16.30;78.60;;;;;;5067384;28;20485;-77
2022/04/22 08:35:02;;;;;;;29.43;20.80;;;16.50;78.50;;;;;;5079179;28;20477;-75
2022/04/22 08:37:29;;;;;;;59.73;28.00;;;16.90;76.30;;;;;;5074558;28;20994;-76
2022/04/22 08:39:59;;;;;;;34.43;24.10;;;16.90;76.80;;;;;;5065489;28;20516;-71
2022/04/22 08:42:26;;;;;;;36.40;25.90;;;17.20;76.90;;;;;;5076771;28;20485;-77
2022/04/22 08:44:54;;;;;;;31.43;22.63;;;17.30;76.50;;;;;;5073492;28;20483;-75
2022/04/22 08:50:13;;;;;;;36.30;22.97;;;17.40;74.60;;;;;;5066000;28;20496;-75
2022/04/22 08:52:42;;;;;;;33.80;21.30;;;17.50;74.60;;;;;;5072436;28;20541;-77
2022/04/22 08:55:12;;;;;;;29.50;19.80;;;17.50;74.30;;;;;;5074546;28;20965;-76
2022/04/22 08:57:40;;;;;;;26.93;21.47;;;16.10;73.40;;;;;;5069840;28;20612;-79
2022/04/22 09:00:09;;;;;;;29.23;22.47;;;17.60;74.30;;;;;;5065674;28;20513;-82
2022/04/22 09:02:36;;;;;;;69.33;22.10;;;17.80;73.20;;;;;;5070535;28;20487;-74
2022/04/22 09:05:05;;;;;;;33.20;23.00;;;17.80;73.80;;;;;;5070064;28;20505;-76
2022/04/22 09:07:33;;;;;;;34.10;22.90;;;18.00;75.00;;;;;;5062651;28;20764;-76
2022/04/22 09:10:01;;;;;;;28.60;19.93;;;18.10;74.00;;;;;;5071594;28;20494;-74
2022/04/22 09:12:29;;;;;;;38.33;23.60;;;18.20;73.30;;;;;;5067673;28;20546;-74
2022/04/22 09:14:57;;;;;;;27.30;19.50;;;18.30;73.40;;;;;;5069795;28;20835;-76
2022/04/22 09:17:26;;;;;;;34.20;24.00;;;18.40;73.40;;;;;;5073316;28;20487;-77
2022/04/22 09:19:54;;;;;;;32.87;23.50;;;18.50;74.20;;;;;;5067592;28;20483;-75
2022/04/22 09:22:22;;;;;;;32.27;24.70;;;18.50;73.10;;;;;;5068623;28;20471;-73
2022/04/22 09:24:52;;;;;;;42.13;23.20;;;18.70;73.30;;;;;;5068326;28;20485;-79
2022/04/22 09:27:19;;;;;;;30.30;23.00;;;18.70;73.20;;;;;;5071948;28;20858;-74
2022/04/22 09:29:54;;;;;;;30.60;22.93;;;18.90;75.20;;;;;;5067591;28;20486;-76
2022/04/22 09:32:26;;;;;;;36.60;25.20;;;19.00;74.50;;;;;;5072844;28;21249;-73
2022/04/22 09:34:57;;;;;;;32.13;19.40;;;19.20;72.40;;;;;;5073353;28;20483;-78
2022/04/22 09:42:55;;;;;;;30.17;21.73;;;19.20;70.80;;;;;;5068551;28;20507;-74
2022/04/22 09:45:35;;;;;;;40.30;27.27;;;19.10;72.50;;;;;;5064900;28;20474;-76
2022/04/22 09:48:03;;;;;;;27.13;20.83;;;19.20;71.90;;;;;;5070008;28;20516;-77
2022/04/22 09:50:42;;;;;;;37.50;22.80;;;19.20;72.00;;;;;;5067338;28;20487;-77
2022/04/22 09:53:10;;;;;;;27.00;19.97;;;19.20;69.20;;;;;;5059275;28;20506;-76
2022/04/22 09:55:52;;;;;;;24.00;19.73;;;19.10;69.80;;;;;;5045212;28;20930;-73
2022/04/22 09:58:27;;;;;;;33.13;23.43;;;19.20;73.60;;;;;;5071668;28;21073;-77
2022/04/22 10:01:01;;;;;;;30.03;20.60;;;19.50;72.50;;;;;;5074509;28;20488;-75
2022/04/22 10:03:30;;;;;;;32.73;22.80;;;19.60;71.60;;;;;;5068146;28;20490;-73
2022/04/22 10:05:58;;;;;;;28.67;20.50;;;19.80;70.20;;;;;;5062339;28;20477;-75
2022/04/22 10:08:28;;;;;;;33.73;23.70;;;19.90;71.40;;;;;;5068871;28;20483;-75
2022/04/22 10:10:58;;;;;;;26.67;18.87;;;20.00;69.50;;;;;;5063359;28;20490;-76
2022/04/22 10:13:33;;;;;;;31.50;23.70;;;19.90;70.10;;;;;;5065857;28;20496;-76
2022/04/22 10:16:02;;;;;;;28.50;19.77;;;20.10;71.40;;;;;;5069799;28;20482;-75
2022/04/22 10:18:30;;;;;;;33.23;22.33;;;20.10;69.70;;;;;;5067527;28;20853;-75
2022/04/22 10:20:59;;;;;;;23.20;18.30;;;20.30;70.10;;;;;;5070560;28;20483;-78
2022/04/22 10:23:29;;;;;;;30.20;21.33;;;20.40;70.00;;;;;;5063220;28;20474;-79
2022/04/22 10:25:55;;;;;;;35.70;22.20;;;20.30;68.60;;;;;;5064370;28;20489;-77
2022/04/22 10:28:24;;;;;;;32.63;23.43;;;20.10;67.90;;;;;;5068465;28;20486;-73
2022/04/22 10:30:52;;;;;;;28.90;22.10;;;20.10;68.40;;;;;;5072839;28;20483;-72
2022/04/22 10:33:25;;;;;;;30.53;22.10;;;20.10;68.50;;;;;;5065492;28;20478;-72
2022/04/22 10:35:58;;;;;;;30.83;21.70;;;20.30;70.30;;;;;;5064902;28;20478;-74
2022/04/22 10:38:29;;;;;;;105.40;29.10;;;20.30;67.90;;;;;;5064596;28;20508;-74
2022/04/22 10:40:56;;;;;;;27.47;19.93;;;20.30;68.40;;;;;;5064384;28;20837;-72
2022/04/22 10:43:25;;;;;;;32.27;21.40;;;20.30;68.60;;;;;;5069216;28;20482;-73
2022/04/22 10:48:41;;;;;;;49.53;20.60;;;;;;;;;;5064521;28;20513;-73
2022/04/22 10:51:09;;;;;;;25.93;20.17;;;20.50;69.90;;;;;;5076652;28;20564;-73
2022/04/22 10:53:46;;;;;;;20.37;16.03;;;20.60;68.80;;;;;;5070814;28;20544;-73
2022/04/22 10:56:36;;;;;;;29.87;19.70;;;20.60;69.50;;;;;;5051803;28;20473;-76
2022/04/22 10:59:28;;;;;;;27.70;17.77;;;20.70;68.10;;;;;;5064037;28;21066;-74
2022/04/22 11:01:56;;;;;;;20.37;17.10;;;20.90;66.60;;;;;;5068337;28;20841;-75
2022/04/22 11:04:28;;;;;;;40.73;26.07;;;21.10;68.80;;;;;;5067086;28;21055;-75
2022/04/22 11:06:56;;;;;;;32.17;19.17;;;21.10;65.90;;;;;;5065010;28;20881;-75
2022/04/22 11:09:27;;;;;;;41.13;23.47;;;21.10;65.60;;;;;;5074378;28;20482;-76
2022/04/22 11:11:54;;;;;;;27.50;19.40;;;21.00;67.00;;;;;;5070571;28;20559;-75
2022/04/22 11:14:23;;;;;;;40.93;21.63;;;21.00;67.20;;;;;;5067154;28;21274;-79
2022/04/22 11:16:50;;;;;;;26.23;18.80;;;20.90;67.70;;;;;;5066353;28;20929;-77
2022/04/22 11:19:37;;;;;;;30.23;19.13;;;21.00;67.40;;;;;;5073477;28;20473;-74
2022/04/22 11:22:07;;;;;;;29.23;18.43;;;21.00;68.70;;;;;;5065552;28;20532;-75
2022/04/22 11:24:35;;;;;;;50.13;19.97;;;;;;;;;;5067807;28;20487;-73
2022/04/22 11:27:10;;;;;;;23.53;15.83;;;20.90;65.70;;;;;;5071819;28;20489;-79
2022/04/22 11:29:37;;;;;;;19.70;16.53;;;;;;;;;;5067681;28;20489;-77
2022/04/22 11:32:13;;;;;;;19.70;16.97;;;21.30;65.30;;;;;;5066767;28;20507;-76
2022/04/22 11:35:05;;;;;;;20.63;14.27;;;21.40;65.60;;;;;;5071430;28;20492;-76
2022/04/22 11:37:33;;;;;;;27.13;17.53;;;21.40;66.40;;;;;;5067342;28;20470;-75
2022/04/22 11:40:00;;;;;;;25.67;18.13;;;21.30;64.00;;;;;;5066558;28;20481;-74
2022/04/22 11:42:28;;;;;;;41.97;19.63;;;21.20;64.00;;;;;;5072847;28;20480;-77
2022/04/22 11:45:05;;;;;;;33.20;18.50;;;21.20;65.70;;;;;;5067993;28;20567;-75
2022/04/22 11:47:32;;;;;;;34.43;18.83;;;21.30;65.70;;;;;;5060304;28;20477;-74
2022/04/22 11:50:01;;;;;;;23.13;16.10;;;21.40;67.50;;;;;;5072247;28;20502;-78
2022/04/22 11:52:29;;;;;;;32.63;19.00;;;21.50;67.90;;;;;;5064617;28;20505;-73
2022/04/22 11:55:00;;;;;;;32.53;14.07;;;21.60;62.60;;;;;;5069047;28;20569;-76
2022/04/22 11:57:29;;;;;;;26.00;17.80;;;21.60;63.20;;;;;;5064544;28;20878;-74
2022/04/22 12:05:34;;;;;;;27.93;16.73;;;21.60;64.60;;;;;;5069097;28;20496;-70
2022/04/22 12:08:05;;;;;;;22.30;15.90;;;21.80;65.80;;;;;;5064869;28;20889;-78
2022/04/22 12:10:33;;;;;;;69.73;19.70;;;22.00;65.40;;;;;;5074120;28;20471;-74
2022/04/22 12:13:02;;;;;;;19.63;14.57;;;22.00;64.10;;;;;;5069261;28;20509;-77
2022/04/22 12:15:29;;;;;;;26.07;15.10;;;22.00;65.60;;;;;;5066345;28;20485;-80
2022/04/22 12:17:56;;;;;;;19.30;13.50;;;21.90;63.50;;;;;;5069158;28;20478;-77
2022/04/22 12:20:25;;;;;;;47.27;19.97;;;21.50;61.50;;;;;;5072116;28;20658;-77
2022/04/22 12:22:56;;;;;;;22.53;14.73;;;19.10;60.10;;;;;;5071576;28;20704;-78
2022/04/22 12:25:23;;;;;;;32.43;19.80;;;21.40;63.30;;;;;;5073718;28;20563;-72
2022/04/22 12:28:09;;;;;;;18.90;13.97;;;21.30;63.10;;;;;;5073418;28;20829;-74
2022/04/22 12:30:37;;;;;;;13.47;12.10;;;21.60;64.50;;;;;;5077525;28;20466;-76
2022/04/22 12:33:05;;;;;;;15.13;13.33;;;21.70;65.10;;;;;;5076947;28;20552;-75
2022/04/22 12:35:32;;;;;;;15.27;12.80;;;21.50;63.10;;;;;;5073216;28;20483;-76
2022/04/22 12:38:05;;;;;;;14.17;12.47;;;21.40;63.00;;;;;;5069708;28;20985;-75
2022/04/22 12:40:43;;;;;;;18.00;13.87;;;21.30;64.40;;;;;;5065017;28;20865;-77
2022/04/22 12:43:28;;;;;;;17.53;13.13;;;21.70;64.20;;;;;;5067221;28;20841;-79
2022/04/22 12:54:32;;;;;;;32.73;18.97;;;22.10;62.50;;;;;;5067183;28;20550;-74
2022/04/22 12:56:58;;;;;;;13.30;11.43;;;22.20;64.30;;;;;;5066595;28;20493;-76
2022/04/22 12:59:40;;;;;;;24.43;16.80;;;22.40;65.20;;;;;;5067861;28;20471;-75
2022/04/22 13:02:08;;;;;;;13.53;10.33;;;22.30;62.80;;;;;;5071026;28;20925;-77
2022/04/22 13:04:49;;;;;;;15.43;12.23;;;22.20;61.60;;;;;;5071213;28;20597;-76
2022/04/22 13:07:15;;;;;;;13.03;11.53;;;22.10;64.10;;;;;;5069598;28;20486;-82
2022/04/22 13:09:43;;;;;;;11.53;10.30;;;22.10;62.90;;;;;;5067480;28;20485;-78
2022/04/22 13:12:10;;;;;;;19.30;11.50;;;22.20;65.30;;;;;;5078337;28;20479;-75
2022/04/22 13:14:37;;;;;;;14.57;12.57;;;19.70;59.90;;;;;;5076944;28;20486;-77
2022/04/22 13:17:04;;;;;;;16.83;13.73;;;22.00;63.90;;;;;;5073802;28;20485;-76
2022/04/22 13:19:31;;;;;;;19.33;14.30;;;22.30;62.90;;;;;;5070752;28;20485;-76
2022/04/22 13:21:58;;;;;;;13.07;11.70;;;22.30;63.40;;;;;;5076370;28;20469;-78
2022/04/22 13:24:26;;;;;;;16.23;14.10;;;22.10;61.90;;;;;;5069996;28;20558;-77
2022/04/22 13:26:54;;;;;;;14.90;12.00;;;22.10;63.00;;;;;;5065419;28;20478;-78
2022/04/22 13:29:21;;;;;;;14.57;13.00;;;22.10;63.60;;;;;;5061954;28;20481;-76
2022/04/22 13:31:48;;;;;;;11.17;10.10;;;21.90;63.30;;;;;;5086677;28;20638;-78
2022/04/22 13:34:15;;;;;;;13.23;11.97;;;21.80;63.50;;;;;;5070526;28;20561;-76
2022/04/22 13:36:41;;;;;;;11.93;10.73;;;21.80;62.70;;;;;;5075164;28;20487;-75
2022/04/22 13:39:08;;;;;;;13.00;11.53;;;21.40;61.70;;;;;;5066499;28;20485;-73
2022/04/22 13:41:35;;;;;;;14.07;11.60;;;21.50;65.20;;;;;;5066180;28;21046;-74
2022/04/22 13:44:06;;;;;;;16.60;11.60;;;21.70;66.60;;;;;;5073827;28;20486;-76
2022/04/22 13:52:26;;;;;;;14.43;11.50;;;21.80;63.70;;;;;;5066839;28;20546;-79